Time;durP1;ratioP1;P1;durP2;ratioP2;P2;SDS_P1;SDS_P2;PMS_P1;PMS_P2;Temp;Humidity;BMP_temperature;BMP_pressure;BME280_temperature;BME280_humidity;BME280_pressure;Samples;Min_cycle;Max_cycle;Signal;HPM_P1;HPM_P2
2022/06/27 00:01:14;;;;;;;2.43;2.23;;;26.50;67.60;;;;;;4994707;28;20472;-78
2022/06/27 00:03:42;;;;;;;2.33;2.13;;;26.70;67.30;;;;;;4985053;28;20822;-78
2022/06/27 00:06:14;;;;;;;1.97;1.83;;;26.80;66.80;;;;;;4993503;28;20437;-78
2022/06/27 00:08:43;;;;;;;2.50;2.30;;;26.90;65.80;;;;;;4993473;28;20469;-78
2022/06/27 00:11:15;;;;;;;1.90;1.80;;;26.90;65.90;;;;;;4993899;28;20970;-79
2022/06/27 00:13:43;;;;;;;2.20;2.00;;;26.80;66.60;;;;;;4988427;28;20819;-78
2022/06/27 00:16:17;;;;;;;2.40;2.13;;;26.90;66.80;;;;;;4975684;28;20482;-79
2022/06/27 00:19:07;;;;;;;1.97;1.77;;;27.00;66.60;;;;;;4983714;28;20464;-79
2022/06/27 00:21:36;;;;;;;1.97;1.87;;;27.00;66.60;;;;;;4993706;28;20436;-79
2022/06/27 00:24:06;;;;;;;2.63;2.13;;;27.10;65.30;;;;;;4992998;28;20489;-79
2022/06/27 00:26:34;;;;;;;2.03;1.93;;;27.00;66.40;;;;;;4993520;28;20447;-78
2022/06/27 00:29:03;;;;;;;2.13;1.90;;;27.00;66.50;;;;;;4992481;28;20510;-78
2022/06/27 00:31:31;;;;;;;2.43;2.23;;;27.10;66.20;;;;;;4994358;28;20426;-79
2022/06/27 00:34:00;;;;;;;2.03;1.90;;;27.20;65.90;;;;;;5035807;28;21124;-79
2022/06/27 00:36:28;;;;;;;2.03;1.90;;;27.30;65.80;;;;;;5020435;28;20525;-79
2022/06/27 00:38:56;;;;;;;2.03;1.90;;;27.20;65.90;;;;;;4991048;28;20824;-80
2022/06/27 00:41:26;;;;;;;1.80;1.70;;;27.20;65.80;;;;;;4994957;28;20860;-78
2022/06/27 00:43:55;;;;;;;3.07;1.87;;;27.30;65.20;;;;;;4992233;28;20998;-78
2022/06/27 00:46:23;;;;;;;3.27;2.97;;;27.30;65.40;;;;;;4993054;28;20452;-78
2022/06/27 00:48:51;;;;;;;1.67;1.57;;;27.30;65.30;;;;;;4992088;28;20916;-79
2022/06/27 00:51:19;;;;;;;2.10;1.90;;;27.30;65.20;;;;;;5008436;28;20926;-78
2022/06/27 00:53:48;;;;;;;2.30;2.00;;;27.30;64.80;;;;;;4991996;28;20445;-79
2022/06/27 00:56:16;;;;;;;2.80;2.53;;;27.30;63.90;;;;;;5007748;28;20928;-80
2022/06/27 00:58:45;;;;;;;4.27;3.03;;;27.20;64.60;;;;;;4992598;28;20441;-79
2022/06/27 01:01:14;;;;;;;3.43;3.13;;;27.00;66.30;;;;;;4993144;28;20486;-78
2022/06/27 01:03:42;;;;;;;3.07;2.83;;;26.80;67.00;;;;;;4985415;28;20548;-79
2022/06/27 01:06:14;;;;;;;4.70;4.33;;;26.60;68.30;;;;;;4990324;28;20480;-78
2022/06/27 01:08:42;;;;;;;3.90;3.50;;;26.40;69.00;;;;;;5005942;28;20539;-79
2022/06/27 01:11:17;;;;;;;3.63;3.33;;;26.20;69.40;;;;;;4991198;28;20781;-78
2022/06/27 01:13:47;;;;;;;2.83;2.63;;;26.20;69.70;;;;;;4979986;28;20498;-79
2022/06/27 01:16:16;;;;;;;4.07;3.50;;;26.20;70.00;;;;;;4977381;28;20472;-79
2022/06/27 01:18:44;;;;;;;4.43;3.10;;;26.20;70.50;;;;;;4978141;28;20559;-79
2022/06/27 01:21:21;;;;;;;2.83;2.63;;;26.10;70.40;;;;;;4977340;28;20493;-78
2022/06/27 01:23:52;;;;;;;3.93;3.30;;;26.00;70.40;;;;;;4973932;28;20503;-78
2022/06/27 01:26:22;;;;;;;2.93;2.63;;;26.00;70.60;;;;;;5012961;28;20478;-78
2022/06/27 01:28:51;;;;;;;3.63;2.30;;;26.00;70.50;;;;;;5003690;28;20595;-78
2022/06/27 01:31:21;;;;;;;2.73;2.40;;;26.10;70.20;;;;;;5006573;28;20830;-78
2022/06/27 01:33:50;;;;;;;2.70;2.03;;;26.20;70.10;;;;;;4986294;28;20447;-78
2022/06/27 01:39:06;;;;;;;2.20;2.00;;;26.30;69.80;;;;;;5020120;28;20468;-78
2022/06/27 01:41:35;;;;;;;2.33;2.13;;;26.40;69.40;;;;;;5015961;28;20486;-79
2022/06/27 01:44:04;;;;;;;2.90;2.20;;;26.40;69.40;;;;;;4990168;28;20475;-80
2022/06/27 01:46:45;;;;;;;2.53;2.33;;;26.50;69.20;;;;;;5016252;28;20460;-79
2022/06/27 01:49:16;;;;;;;3.17;1.67;;;26.40;69.30;;;;;;4992190;28;20490;-79
2022/06/27 01:51:46;;;;;;;2.37;1.30;;;26.40;69.30;;;;;;4975748;28;20548;-79
2022/06/27 01:54:18;;;;;;;3.07;1.73;;;26.50;69.10;;;;;;4973781;28;20547;-80
2022/06/27 01:56:49;;;;;;;2.17;1.40;;;26.50;69.10;;;;;;4977545;28;20455;-79
2022/06/27 01:59:18;;;;;;;1.90;1.53;;;26.50;69.00;;;;;;4976699;28;20463;-79
2022/06/27 02:01:47;;;;;;;1.77;1.00;;;26.60;68.70;;;;;;4986087;28;20453;-80
2022/06/27 02:04:16;;;;;;;5.20;1.50;;;26.80;68.10;;;;;;4988424;28;20462;-79
2022/06/27 02:06:46;;;;;;;2.83;1.63;;;26.80;68.00;;;;;;4979981;28;20940;-81
2022/06/27 02:09:17;;;;;;;1.60;1.30;;;26.90;67.90;;;;;;4993858;28;20484;-79
2022/06/27 02:11:49;;;;;;;1.60;1.17;;;26.90;67.40;;;;;;4999087;28;20967;-79
2022/06/27 02:14:19;;;;;;;2.90;0.97;;;27.10;67.10;;;;;;5009737;28;20475;-82
2022/06/27 02:16:49;;;;;;;1.93;1.20;;;27.30;66.70;;;;;;4997802;28;20475;-79
2022/06/27 02:19:18;;;;;;;1.83;1.10;;;27.20;66.70;;;;;;5028416;28;20459;-79
2022/06/27 02:21:47;;;;;;;1.60;1.17;;;27.30;66.60;;;;;;4996581;28;20519;-79
2022/06/27 02:24:17;;;;;;;1.63;1.10;;;27.30;66.60;;;;;;4979460;28;20464;-80
2022/06/27 02:26:49;;;;;;;1.20;0.93;;;27.30;66.60;;;;;;4991650;28;20488;-80
2022/06/27 02:29:17;;;;;;;1.10;0.70;;;27.40;66.40;;;;;;4996627;28;20487;-81
2022/06/27 02:31:47;;;;;;;2.03;1.07;;;27.40;65.90;;;;;;5011726;28;20540;-79
2022/06/27 02:34:16;;;;;;;1.90;0.97;;;27.30;66.30;;;;;;4996114;28;20475;-79
2022/06/27 02:36:46;;;;;;;1.20;0.90;;;27.30;66.70;;;;;;4997626;28;20442;-79
2022/06/27 02:39:21;;;;;;;0.90;0.70;;;27.30;66.20;;;;;;5028588;28;20529;-80
2022/06/27 02:41:50;;;;;;;1.33;0.97;;;27.30;66.00;;;;;;5013210;28;20460;-79
2022/06/27 02:44:21;;;;;;;1.50;0.90;;;27.30;66.30;;;;;;5030078;28;20473;-79
2022/06/27 02:46:51;;;;;;;1.27;0.73;;;27.40;66.00;;;;;;5011602;28;20446;-79
2022/06/27 02:49:20;;;;;;;1.53;0.90;;;27.40;66.10;;;;;;5001704;28;20488;-82
2022/06/27 02:51:57;;;;;;;1.20;0.70;;;27.60;65.70;;;;;;5011262;28;20439;-80
2022/06/27 02:54:36;;;;;;;1.10;0.70;;;27.70;65.40;;;;;;5026243;28;20560;-80
2022/06/27 02:57:18;;;;;;;0.90;0.60;;;27.70;65.10;;;;;;5031202;28;20520;-80
2022/06/27 02:59:52;;;;;;;1.60;0.80;;;27.70;64.60;;;;;;5047209;28;20445;-79
2022/06/27 03:02:22;;;;;;;1.97;0.83;;;27.80;64.80;;;;;;5029958;28;20463;-80
2022/06/27 03:05:06;;;;;;;1.00;0.50;;;27.90;64.70;;;;;;5047391;28;20456;-79
2022/06/27 03:07:38;;;;;;;1.27;0.73;;;27.90;63.90;;;;;;5026183;28;20445;-79
2022/06/27 03:10:11;;;;;;;1.50;0.80;;;27.90;64.00;;;;;;5028258;28;20490;-80
2022/06/27 03:12:41;;;;;;;1.27;0.70;;;27.90;63.90;;;;;;5027645;28;20469;-80
2022/06/27 03:15:10;;;;;;;1.83;0.80;;;27.80;64.40;;;;;;5027566;28;20992;-80
2022/06/27 03:17:38;;;;;;;1.40;0.83;;;27.70;64.40;;;;;;4992574;28;20543;-80
2022/06/27 03:20:25;;;;;;;2.00;0.60;;;27.40;64.80;;;;;;4994786;28;20539;-79
2022/06/27 03:23:16;;;;;;;10.60;1.27;;;27.00;65.30;;;;;;4993332;28;20464;-79
2022/06/27 03:25:50;;;;;;;1.60;0.83;;;26.80;65.90;;;;;;4993516;28;20449;-79
2022/06/27 03:28:19;;;;;;;1.00;0.70;;;26.60;66.90;;;;;;5010072;28;20465;-79
2022/06/27 03:30:48;;;;;;;1.20;0.70;;;26.70;66.70;;;;;;5008598;28;21015;-79
2022/06/27 03:33:17;;;;;;;1.33;0.80;;;26.80;66.60;;;;;;4993425;28;20940;-79
2022/06/27 03:35:53;;;;;;;3.10;1.10;;;26.70;66.30;;;;;;4993750;28;20452;-79
2022/06/27 03:38:22;;;;;;;2.00;0.70;;;26.60;66.50;;;;;;5001634;28;20975;-79
2022/06/27 03:40:51;;;;;;;1.20;0.70;;;26.60;66.70;;;;;;5043240;28;20473;-80
2022/06/27 03:43:20;;;;;;;2.40;0.73;;;26.50;66.50;;;;;;5012588;28;20475;-80
2022/06/27 03:45:48;;;;;;;2.70;1.10;;;26.50;66.80;;;;;;5045912;28;20517;-79
2022/06/27 03:51:17;;;;;;;2.17;0.97;;;26.50;66.80;;;;;;5014014;28;20471;-79
2022/06/27 03:53:45;;;;;;;3.10;1.33;;;26.60;67.50;;;;;;5000952;28;20466;-79
2022/06/27 03:56:19;;;;;;;2.70;1.10;;;26.70;67.30;;;;;;4993116;28;20505;-78
2022/06/27 03:58:47;;;;;;;0.97;0.60;;;26.80;66.10;;;;;;4994398;28;20522;-78
2022/06/27 04:01:19;;;;;;;1.00;0.60;;;26.70;66.70;;;;;;4991373;28;20544;-80
2022/06/27 04:03:47;;;;;;;1.90;0.90;;;26.70;66.50;;;;;;4989175;28;20549;-79
2022/06/27 04:06:19;;;;;;;3.53;1.00;;;26.60;66.70;;;;;;5008772;28;20467;-79
2022/06/27 04:08:47;;;;;;;1.40;1.17;;;26.50;66.80;;;;;;4993107;28;21002;-80
2022/06/27 04:11:15;;;;;;;2.43;0.77;;;26.50;66.60;;;;;;5007723;28;20540;-79
2022/06/27 04:13:49;;;;;;;2.90;0.93;;;26.30;67.10;;;;;;4992696;28;21247;-79
2022/06/27 04:16:35;;;;;;;1.80;0.80;;;26.40;67.90;;;;;;4989649;28;20490;-78
2022/06/27 04:19:13;;;;;;;1.43;0.90;;;26.60;67.60;;;;;;4989516;28;20461;-78
2022/06/27 04:22:13;;;;;;;1.53;0.83;;;26.80;67.00;;;;;;4992450;28;20465;-79
2022/06/27 04:25:10;;;;;;;2.17;1.43;;;27.00;66.50;;;;;;4992229;28;20456;-78
2022/06/27 04:27:44;;;;;;;2.77;1.20;;;27.10;65.70;;;;;;5004181;28;20828;-81
2022/06/27 04:30:17;;;;;;;1.23;0.63;;;26.90;65.60;;;;;;5003305;28;20492;-82
2022/06/27 04:32:48;;;;;;;1.57;1.10;;;26.80;66.60;;;;;;4997855;28;20462;-80
2022/06/27 04:35:16;;;;;;;1.53;0.90;;;26.90;66.50;;;;;;4982022;28;20473;-80
2022/06/27 04:37:45;;;;;;;1.30;0.77;;;27.10;66.60;;;;;;5003232;28;20457;-79
2022/06/27 04:40:38;;;;;;;1.67;0.70;;;27.20;66.50;;;;;;5021113;28;20886;-80
2022/06/27 04:43:10;;;;;;;1.03;0.70;;;27.30;66.30;;;;;;4990781;28;20472;-79
2022/06/27 04:45:40;;;;;;;2.43;1.00;;;27.40;66.10;;;;;;5003785;28;20460;-79
2022/06/27 04:48:29;;;;;;;2.27;0.80;;;27.50;65.90;;;;;;4986270;28;21076;-80
2022/06/27 04:50:59;;;;;;;1.20;0.70;;;27.60;65.60;;;;;;5005729;28;20481;-79
2022/06/27 04:53:28;;;;;;;1.00;0.70;;;27.70;65.10;;;;;;4987962;28;21144;-81
2022/06/27 04:55:57;;;;;;;1.03;0.70;;;27.80;65.40;;;;;;4985731;28;20451;-79
2022/06/27 04:58:26;;;;;;;1.70;0.93;;;27.80;65.30;;;;;;5024061;28;20473;-80
2022/06/27 05:00:56;;;;;;;3.37;1.00;;;27.90;64.70;;;;;;4986798;28;20476;-82
2022/06/27 05:03:24;;;;;;;4.30;1.07;;;27.80;64.30;;;;;;4986708;28;20467;-80
2022/06/27 05:06:04;;;;;;;6.67;1.93;;;27.70;64.80;;;;;;5005457;28;20548;-79
2022/06/27 05:08:32;;;;;;;2.90;1.63;;;27.60;65.00;;;;;;4984024;28;20927;-79
2022/06/27 05:11:02;;;;;;;2.17;0.90;;;27.40;65.20;;;;;;5020331;28;21046;-79
2022/06/27 05:13:31;;;;;;;1.67;1.20;;;27.30;65.80;;;;;;5022592;28;20560;-79
2022/06/27 05:16:15;;;;;;;;;;;;;;;;;;;;;
2022/06/27 05:18:44;;;;;;;10.60;1.10;;;27.00;66.80;;;;;;4988400;28;20870;-79
2022/06/27 05:21:32;;;;;;;2.00;1.57;;;27.00;66.90;;;;;;4989833;28;20546;-79
2022/06/27 05:24:01;;;;;;;1.40;0.90;;;27.00;66.90;;;;;;4989768;28;20469;-81
2022/06/27 05:26:29;;;;;;;1.97;1.23;;;26.90;67.30;;;;;;4990858;28;20460;-80
2022/06/27 05:28:58;;;;;;;1.70;1.13;;;26.90;67.30;;;;;;4991458;28;20482;-81
2022/06/27 05:31:27;;;;;;;3.40;1.20;;;26.90;67.20;;;;;;4990403;28;20482;-79
2022/06/27 05:33:56;;;;;;;1.60;1.00;;;26.90;67.30;;;;;;4991306;28;20492;-79
2022/06/27 05:36:25;;;;;;;3.00;1.00;;;26.90;67.40;;;;;;4991315;28;20497;-79
2022/06/27 05:38:53;;;;;;;4.40;1.20;;;26.90;67.40;;;;;;5020704;28;20496;-79
2022/06/27 05:41:22;;;;;;;1.13;0.90;;;26.90;67.50;;;;;;4989971;28;20521;-80
2022/06/27 05:43:56;;;;;;;1.87;0.90;;;27.00;67.50;;;;;;4990142;28;20523;-79
2022/06/27 05:46:24;;;;;;;1.20;1.10;;;27.00;67.30;;;;;;5011868;28;20473;-80
2022/06/27 05:49:19;;;;;;;1.57;0.80;;;27.00;67.20;;;;;;4991455;28;20523;-78
2022/06/27 05:51:51;;;;;;;1.50;1.10;;;27.00;67.10;;;;;;4995050;28;20494;-81
2022/06/27 05:54:21;;;;;;;3.17;1.13;;;27.00;67.00;;;;;;4990587;28;20581;-80
2022/06/27 05:56:50;;;;;;;2.83;1.60;;;27.00;67.50;;;;;;5008832;28;20467;-80
2022/06/27 05:59:20;;;;;;;2.17;0.93;;;27.00;68.10;;;;;;5010030;28;20457;-80
2022/06/27 06:01:51;;;;;;;1.37;1.10;;;26.90;67.80;;;;;;4994933;28;20801;-79
2022/06/27 06:04:22;;;;;;;3.20;1.33;;;26.80;68.00;;;;;;5009988;28;20563;-79
2022/06/27 06:06:51;;;;;;;2.47;1.23;;;26.80;67.80;;;;;;4994261;28;20453;-79
2022/06/27 06:09:19;;;;;;;2.83;0.93;;;26.80;68.00;;;;;;4990798;28;20449;-79
2022/06/27 06:11:48;;;;;;;1.87;1.00;;;26.80;68.20;;;;;;4993498;28;20604;-79
2022/06/27 06:14:17;;;;;;;2.00;1.00;;;26.90;67.80;;;;;;4986154;28;20580;-80
2022/06/27 06:16:48;;;;;;;1.50;1.00;;;26.90;68.00;;;;;;4984911;28;20492;-79
2022/06/27 06:19:17;;;;;;;1.17;0.90;;;26.90;67.70;;;;;;4992384;28;20464;-78
2022/06/27 06:21:47;;;;;;;1.20;0.90;;;26.90;67.50;;;;;;4979485;28;20512;-79
2022/06/27 06:24:15;;;;;;;2.47;2.03;;;26.90;67.40;;;;;;5004335;28;20851;-78
2022/06/27 06:26:45;;;;;;;4.10;0.87;;;26.90;68.10;;;;;;4997626;28;20496;-79
2022/06/27 06:29:15;;;;;;;3.53;1.00;;;26.90;68.00;;;;;;5006569;28;20806;-78
2022/06/27 06:31:51;;;;;;;2.20;1.40;;;27.00;67.50;;;;;;5002466;28;20991;-79
2022/06/27 06:34:26;;;;;;;1.70;1.10;;;27.00;67.20;;;;;;5000216;28;20459;-79
2022/06/27 06:36:56;;;;;;;2.40;0.90;;;27.00;67.50;;;;;;4992318;28;20551;-79
2022/06/27 06:39:24;;;;;;;2.10;1.57;;;27.10;67.60;;;;;;4996166;28;20476;-80
2022/06/27 06:41:54;;;;;;;1.70;0.90;;;27.10;67.40;;;;;;5000663;28;20449;-78
2022/06/27 06:44:24;;;;;;;3.43;2.07;;;27.10;66.90;;;;;;5002537;28;20491;-79
2022/06/27 06:47:22;;;;;;;2.40;1.30;;;27.10;67.20;;;;;;4999750;28;20963;-78
2022/06/27 06:49:52;;;;;;;1.87;0.90;;;27.20;66.70;;;;;;5006250;28;20576;-79
2022/06/27 06:52:22;;;;;;;2.57;1.20;;;27.20;66.50;;;;;;4991934;28;20509;-78
2022/06/27 06:54:51;;;;;;;2.30;1.37;;;27.30;66.50;;;;;;4986426;28;21196;-79
2022/06/27 06:57:19;;;;;;;3.07;0.97;;;27.30;67.10;;;;;;4992424;28;20532;-77
2022/06/27 06:59:47;;;;;;;1.10;0.83;;;27.30;66.70;;;;;;4993631;28;20545;-77
2022/06/27 07:02:16;;;;;;;1.97;1.77;;;27.40;66.70;;;;;;4995531;28;20547;-77
2022/06/27 07:04:44;;;;;;;1.40;1.30;;;27.50;66.30;;;;;;4990862;28;20492;-77
2022/06/27 07:07:13;;;;;;;1.47;1.27;;;27.50;66.00;;;;;;5005049;28;20480;-77
2022/06/27 07:09:43;;;;;;;1.90;0.90;;;27.40;66.60;;;;;;4993982;28;20534;-79
2022/06/27 07:12:11;;;;;;;1.20;0.80;;;27.40;66.40;;;;;;4992387;28;20901;-79
2022/06/27 07:14:39;;;;;;;1.77;1.30;;;27.40;66.90;;;;;;5000713;28;20974;-78
2022/06/27 07:17:08;;;;;;;1.80;1.30;;;27.40;66.00;;;;;;4997054;28;20612;-78
2022/06/27 07:19:36;;;;;;;2.50;1.37;;;27.40;66.00;;;;;;4984900;28;20577;-79
2022/06/27 07:22:06;;;;;;;1.77;0.87;;;27.30;65.30;;;;;;4993537;28;20445;-78
2022/06/27 07:24:34;;;;;;;2.73;1.20;;;27.30;66.50;;;;;;4996627;28;20477;-78
2022/06/27 07:27:05;;;;;;;1.47;1.03;;;27.30;65.90;;;;;;4997817;28;20508;-79
2022/06/27 07:29:33;;;;;;;2.33;1.33;;;27.20;65.60;;;;;;4998213;28;20541;-78
2022/06/27 07:32:04;;;;;;;1.40;0.90;;;27.20;65.90;;;;;;4999200;28;21007;-78
2022/06/27 07:34:32;;;;;;;2.63;1.03;;;27.30;66.30;;;;;;4999370;28;20454;-78
2022/06/27 07:37:01;;;;;;;1.73;1.20;;;27.30;66.60;;;;;;4999245;28;20422;-78
2022/06/27 07:39:29;;;;;;;1.50;0.90;;;27.30;66.20;;;;;;4998550;28;20445;-79
2022/06/27 07:41:57;;;;;;;2.53;1.33;;;27.30;65.80;;;;;;4998333;28;20437;-78
2022/06/27 07:44:27;;;;;;;3.07;1.50;;;27.30;65.70;;;;;;4994259;28;20750;-79
2022/06/27 07:46:56;;;;;;;1.20;0.90;;;27.30;65.40;;;;;;4994539;28;20794;-79
2022/06/27 07:49:24;;;;;;;3.73;1.10;;;27.30;65.50;;;;;;4993501;28;22028;-79
2022/06/27 07:51:52;;;;;;;1.70;1.30;;;27.30;66.30;;;;;;4992196;28;20565;-79
2022/06/27 07:54:21;;;;;;;3.93;1.23;;;27.30;66.00;;;;;;4973856;28;20485;-79
2022/06/27 07:56:51;;;;;;;1.53;1.10;;;27.40;66.20;;;;;;4974166;28;20508;-79
2022/06/27 07:59:31;;;;;;;2.10;1.27;;;27.40;65.60;;;;;;4974528;28;20994;-79
2022/06/27 08:01:59;;;;;;;1.40;1.30;;;27.40;65.90;;;;;;4974895;28;20431;-79
2022/06/27 08:04:28;;;;;;;1.40;1.30;;;27.40;66.00;;;;;;4986224;28;20595;-79
2022/06/27 08:06:57;;;;;;;1.50;1.40;;;27.40;65.60;;;;;;5003156;28;20449;-79
2022/06/27 08:09:26;;;;;;;1.20;1.03;;;27.40;65.80;;;;;;5012762;28;20446;-80
2022/06/27 08:11:54;;;;;;;1.93;1.10;;;27.40;65.70;;;;;;5012953;28;20470;-79
2022/06/27 08:14:23;;;;;;;1.50;1.30;;;27.40;65.90;;;;;;5012911;28;20468;-80
2022/06/27 08:16:53;;;;;;;2.43;1.07;;;27.50;65.90;;;;;;5009195;28;20478;-78
2022/06/27 08:19:23;;;;;;;1.90;1.30;;;27.40;65.90;;;;;;4992096;28;20505;-79
2022/06/27 08:21:51;;;;;;;1.70;1.13;;;27.50;65.90;;;;;;4994030;28;20431;-80
2022/06/27 08:24:19;;;;;;;1.10;0.73;;;27.50;65.90;;;;;;4994308;28;20442;-79
2022/06/27 08:26:49;;;;;;;1.60;1.10;;;27.50;66.00;;;;;;5013146;28;20491;-80
2022/06/27 08:29:18;;;;;;;2.13;1.00;;;27.60;65.90;;;;;;4973577;28;20434;-79
2022/06/27 08:31:46;;;;;;;1.77;1.40;;;27.60;65.50;;;;;;4974274;28;20871;-80
2022/06/27 08:34:16;;;;;;;1.90;1.20;;;27.70;65.40;;;;;;4972437;28;20431;-81
2022/06/27 08:36:45;;;;;;;1.77;1.10;;;27.70;65.60;;;;;;5003996;28;20505;-79
2022/06/27 08:39:16;;;;;;;1.57;1.10;;;27.70;65.50;;;;;;5012040;28;21105;-80
2022/06/27 08:41:46;;;;;;;2.23;1.20;;;27.70;65.60;;;;;;5008640;28;20455;-79
2022/06/27 08:44:16;;;;;;;1.60;0.93;;;27.70;65.90;;;;;;4992007;28;20536;-79
2022/06/27 08:46:46;;;;;;;1.60;1.10;;;27.70;65.60;;;;;;4992820;28;20453;-78
2022/06/27 08:49:17;;;;;;;1.90;1.60;;;27.80;65.50;;;;;;4992651;28;20488;-78
2022/06/27 08:51:46;;;;;;;1.40;1.20;;;27.80;66.10;;;;;;4993556;28;20491;-79
2022/06/27 08:54:14;;;;;;;1.40;1.20;;;27.70;66.10;;;;;;4993800;28;20455;-79
2022/06/27 08:56:43;;;;;;;2.53;1.70;;;27.70;66.30;;;;;;5012945;28;20494;-80
2022/06/27 08:59:12;;;;;;;2.03;1.83;;;27.70;66.60;;;;;;5013031;28;20436;-78
2022/06/27 09:01:47;;;;;;;2.57;2.37;;;27.60;66.50;;;;;;5012510;28;20786;-80
2022/06/27 09:04:17;;;;;;;2.20;1.80;;;27.60;67.00;;;;;;5007216;28;20450;-80
2022/06/27 09:06:56;;;;;;;2.83;1.87;;;27.60;66.60;;;;;;4994339;28;20455;-79
2022/06/27 09:09:27;;;;;;;2.70;2.20;;;27.50;66.90;;;;;;4992048;28;20456;-79
2022/06/27 09:11:56;;;;;;;2.30;1.80;;;27.50;67.10;;;;;;4992966;28;20454;-78
2022/06/27 09:14:35;;;;;;;2.10;1.60;;;27.40;67.00;;;;;;4988014;28;20492;-79
2022/06/27 09:17:09;;;;;;;1.83;1.63;;;27.50;66.90;;;;;;4985058;28;20488;-78
2022/06/27 09:19:53;;;;;;;3.50;2.00;;;27.50;67.30;;;;;;4990975;28;21286;-80
2022/06/27 09:22:26;;;;;;;1.87;1.40;;;27.50;67.00;;;;;;4982018;28;20460;-77
2022/06/27 09:25:04;;;;;;;2.00;1.60;;;27.60;67.10;;;;;;4989195;28;20972;-78
2022/06/27 09:27:37;;;;;;;2.90;1.93;;;27.50;67.40;;;;;;4985131;28;20456;-77
2022/06/27 09:30:24;;;;;;;2.97;2.30;;;27.50;67.40;;;;;;4987847;28;20515;-77
2022/06/27 09:32:54;;;;;;;3.20;2.60;;;27.40;67.60;;;;;;4991316;28;20884;-77
2022/06/27 09:35:26;;;;;;;2.73;2.50;;;27.30;68.00;;;;;;4986972;28;20464;-80
2022/06/27 09:37:55;;;;;;;2.57;2.20;;;27.50;67.70;;;;;;4985175;28;20896;-80
2022/06/27 09:40:26;;;;;;;2.17;1.90;;;27.50;67.50;;;;;;4986745;28;20462;-79
2022/06/27 09:42:55;;;;;;;2.27;2.03;;;27.60;67.50;;;;;;4990287;28;20514;-79
2022/06/27 09:45:25;;;;;;;2.60;2.40;;;27.70;67.50;;;;;;4988474;28;20489;-79
2022/06/27 09:47:58;;;;;;;2.60;2.40;;;27.60;67.30;;;;;;4988688;28;20459;-80
2022/06/27 09:50:32;;;;;;;2.97;2.20;;;27.60;67.30;;;;;;4992081;28;20522;-81
2022/06/27 09:53:01;;;;;;;4.53;2.40;;;27.60;67.40;;;;;;4991115;28;20481;-81
2022/06/27 09:55:30;;;;;;;3.60;1.70;;;27.70;67.40;;;;;;4990808;28;20466;-80
2022/06/27 09:57:59;;;;;;;2.10;1.90;;;27.60;67.20;;;;;;4991670;28;20463;-81
2022/06/27 10:00:28;;;;;;;2.53;1.70;;;27.70;67.10;;;;;;5006353;28;20448;-81
2022/06/27 10:03:01;;;;;;;2.20;2.00;;;27.80;67.20;;;;;;4986290;28;21203;-79
2022/06/27 10:05:31;;;;;;;1.93;1.73;;;27.80;67.00;;;;;;4991796;28;20468;-79
2022/06/27 10:08:02;;;;;;;2.40;2.20;;;27.90;66.80;;;;;;4992136;28;20582;-82
2022/06/27 10:10:30;;;;;;;3.60;1.60;;;27.90;66.60;;;;;;4991496;28;20454;-80
2022/06/27 10:13:01;;;;;;;2.57;1.97;;;27.90;66.50;;;;;;4991781;28;20530;-82
2022/06/27 10:15:31;;;;;;;2.10;1.60;;;27.90;66.70;;;;;;4991680;28;20494;-81
2022/06/27 10:18:01;;;;;;;2.70;1.80;;;27.90;66.70;;;;;;4988085;28;20993;-80
2022/06/27 10:20:37;;;;;;;1.90;1.40;;;27.90;66.40;;;;;;4989828;28;20460;-81
2022/06/27 10:23:23;;;;;;;2.30;1.70;;;27.90;66.50;;;;;;4991478;28;20451;-81
2022/06/27 10:25:51;;;;;;;4.50;1.83;;;27.90;66.30;;;;;;4991189;28;20473;-79
2022/06/27 10:28:22;;;;;;;3.63;1.80;;;27.90;66.30;;;;;;4989560;28;20454;-78
2022/06/27 10:30:51;;;;;;;1.60;1.50;;;27.90;66.50;;;;;;4992003;28;20936;-80
2022/06/27 10:33:39;;;;;;;1.77;1.27;;;28.00;66.10;;;;;;4995576;28;20565;-79
2022/06/27 10:36:27;;;;;;;1.30;1.20;;;27.90;66.10;;;;;;4995077;28;20881;-80
2022/06/27 10:38:57;;;;;;;1.40;1.30;;;27.90;66.10;;;;;;5009415;28;20457;-79
2022/06/27 10:41:46;;;;;;;2.47;1.30;;;27.70;66.30;;;;;;4995558;28;20462;-80
2022/06/27 10:44:33;;;;;;;1.40;1.30;;;27.70;66.50;;;;;;4988754;28;20500;-80
2022/06/27 10:47:33;;;;;;;2.03;1.57;;;27.70;66.70;;;;;;4990249;28;20457;-80
2022/06/27 10:50:13;;;;;;;3.50;1.60;;;27.70;66.50;;;;;;4992219;28;20489;-78
2022/06/27 10:52:46;;;;;;;1.70;1.27;;;27.70;66.40;;;;;;5009976;28;20468;-83
2022/06/27 10:55:33;;;;;;;1.43;1.33;;;27.80;66.20;;;;;;4992570;28;20473;-82
2022/06/27 10:58:21;;;;;;;2.77;1.83;;;27.90;66.00;;;;;;4989538;28;20449;-79
2022/06/27 11:00:49;;;;;;;2.03;1.20;;;27.80;65.80;;;;;;4991333;28;20523;-79
2022/06/27 11:03:24;;;;;;;2.43;1.33;;;27.70;66.10;;;;;;4988527;28;20865;-82
2022/06/27 11:05:54;;;;;;;1.67;1.23;;;27.70;65.90;;;;;;4990489;28;20826;-83
2022/06/27 11:08:25;;;;;;;3.23;1.40;;;27.70;66.10;;;;;;4989376;28;20445;-79
2022/06/27 11:10:53;;;;;;;1.90;1.37;;;27.70;66.00;;;;;;4996436;28;20462;-79
2022/06/27 11:13:43;;;;;;;1.30;0.90;;;27.70;66.10;;;;;;5021144;28;20480;-80
2022/06/27 11:16:33;;;;;;;1.47;1.33;;;27.70;66.10;;;;;;4990712;28;21013;-78
2022/06/27 11:19:02;;;;;;;1.40;1.20;;;27.90;65.90;;;;;;5006113;28;20452;-78
2022/06/27 11:21:35;;;;;;;2.13;1.10;;;28.00;65.60;;;;;;4992318;28;20957;-78
2022/06/27 11:24:06;;;;;;;2.17;1.17;;;28.10;65.30;;;;;;4988245;28;20861;-85
2022/06/27 11:26:44;;;;;;;1.97;1.30;;;28.10;65.40;;;;;;4991756;28;20457;-78
2022/06/27 11:32:18;;;;;;;1.63;1.53;;;28.00;65.50;;;;;;4925148;29;20807;-82
2022/06/27 11:34:51;;;;;;;1.10;0.90;;;28.00;65.60;;;;;;4925528;29;20480;-79
2022/06/27 11:37:20;;;;;;;1.97;1.50;;;28.00;65.60;;;;;;4953618;28;21354;-80
2022/06/27 11:39:59;;;;;;;1.20;1.00;;;28.00;66.00;;;;;;4985560;28;20495;-79
2022/06/27 11:42:29;;;;;;;1.80;1.37;;;27.90;66.10;;;;;;5001947;28;20840;-82
2022/06/27 11:45:06;;;;;;;1.33;1.03;;;28.00;66.00;;;;;;4986881;28;20873;-80
2022/06/27 11:47:35;;;;;;;1.90;1.33;;;27.90;66.00;;;;;;4993070;28;20955;-79
2022/06/27 11:50:06;;;;;;;3.63;1.60;;;27.70;66.00;;;;;;4991265;28;20528;-80
2022/06/27 11:52:39;;;;;;;3.93;1.40;;;27.70;66.00;;;;;;4995407;28;20470;-82
2022/06/27 11:55:12;;;;;;;1.93;1.37;;;27.80;66.00;;;;;;5005151;28;20486;-80
2022/06/27 11:57:45;;;;;;;2.10;1.70;;;27.90;65.90;;;;;;4996328;28;20453;-81
2022/06/27 12:00:18;;;;;;;1.50;1.37;;;27.90;65.90;;;;;;5004896;28;20457;-80
2022/06/27 12:02:48;;;;;;;1.47;1.27;;;27.90;65.80;;;;;;5006841;28;20515;-81
2022/06/27 12:05:19;;;;;;;3.17;1.53;;;28.00;65.60;;;;;;5013844;28;20480;-79
2022/06/27 12:07:56;;;;;;;1.53;1.43;;;28.10;65.60;;;;;;5023448;28;20462;-81
2022/06/27 12:11:16;;;;;;;3.33;1.63;;;28.20;65.20;;;;;;5016234;28;20444;-80
2022/06/27 12:14:14;;;;;;;1.83;1.50;;;28.20;65.10;;;;;;4995229;28;20507;-80
2022/06/27 12:16:47;;;;;;;1.50;1.20;;;28.30;64.70;;;;;;4999876;28;20579;-81
2022/06/27 12:19:16;;;;;;;1.87;1.50;;;28.40;64.50;;;;;;4990261;28;20478;-80
2022/06/27 12:21:45;;;;;;;2.63;1.80;;;28.70;64.10;;;;;;4990714;28;20459;-82
2022/06/27 12:24:14;;;;;;;2.57;1.40;;;28.90;63.70;;;;;;4989606;28;20982;-82
2022/06/27 12:26:45;;;;;;;1.80;1.70;;;29.10;63.40;;;;;;4992428;28;20449;-82
2022/06/27 12:29:15;;;;;;;2.70;2.07;;;29.20;63.20;;;;;;4987802;28;21149;-81
2022/06/27 12:31:44;;;;;;;3.70;2.43;;;29.30;63.10;;;;;;4993447;28;20510;-83
2022/06/27 12:34:13;;;;;;;4.03;2.27;;;29.40;62.70;;;;;;4990130;28;20550;-81
2022/06/27 12:36:41;;;;;;;2.83;1.80;;;29.50;62.30;;;;;;4990131;28;20554;-81
2022/06/27 12:39:10;;;;;;;3.10;2.20;;;29.60;62.00;;;;;;4992958;28;20547;-82
2022/06/27 12:41:38;;;;;;;3.53;2.07;;;29.80;61.80;;;;;;4988158;28;20459;-82
2022/06/27 12:44:08;;;;;;;1.60;1.50;;;29.80;61.80;;;;;;4988859;28;20458;-86
2022/06/27 12:46:36;;;;;;;1.83;1.70;;;29.90;61.60;;;;;;4993140;28;20516;-81
2022/06/27 12:49:23;;;;;;;2.10;1.83;;;30.00;61.30;;;;;;4989604;28;20499;-79
2022/06/27 12:51:52;;;;;;;2.00;1.67;;;30.00;61.30;;;;;;4993931;28;20593;-82
2022/06/27 12:54:26;;;;;;;2.10;1.57;;;29.90;61.30;;;;;;4996053;28;20499;-82
2022/06/27 12:56:55;;;;;;;3.33;2.47;;;29.90;61.50;;;;;;4999035;28;20458;-80
2022/06/27 12:59:24;;;;;;;2.33;2.00;;;29.80;61.80;;;;;;5026190;28;20472;-81
2022/06/27 13:01:56;;;;;;;3.07;1.67;;;29.90;61.70;;;;;;5025130;28;20996;-81
2022/06/27 13:04:24;;;;;;;2.30;2.10;;;29.70;61.70;;;;;;4994722;28;20461;-80
2022/06/27 13:06:52;;;;;;;1.67;1.50;;;29.60;61.80;;;;;;4985432;28;20465;-81
2022/06/27 13:09:21;;;;;;;2.60;1.90;;;29.40;62.20;;;;;;4996074;28;20456;-81
2022/06/27 13:11:49;;;;;;;4.83;2.03;;;29.50;62.00;;;;;;4991465;28;20582;-81
2022/06/27 13:14:17;;;;;;;1.87;1.77;;;29.60;61.90;;;;;;4994224;28;21055;-82
2022/06/27 13:16:47;;;;;;;2.77;2.17;;;29.60;61.90;;;;;;4993324;28;20533;-85
2022/06/27 13:19:15;;;;;;;2.57;2.17;;;29.50;61.90;;;;;;4992019;28;20457;-80
2022/06/27 13:21:46;;;;;;;3.13;1.70;;;29.50;62.00;;;;;;4994453;28;20492;-85